x

West Dixon Entrance (46205) Wave Buoy

6:00pm - Wed 30th Jul 2014 All times are PDT. -7 hours from GMT.

  • Sig Wave height 2.6ft
  • Peak Period 14s
  • Wind
    9mph
  • Sea Temp 60°f
  • Air Temp 59°f
  • Sea Pressure 1025mb
  • West Dixon Entrance
  • West Dixon Entrance

More Historic Weather Station data

Upgrade to MSW Pro to gain access to the past 30 days of data for over 8000 Wavebouys and Weather Stations around the globe.

Join Pro

Comparision Forecast

View Surf forecast
   
Wed 07/30 6:00pm 2.5ft 14s 9
mph
1025mb 60f 59f
5:00pm 2.5ft 14s 7 9 mph 1024.9mb 60f 59f
4:00pm 3ft 14s 11
mph
1024.8mb 59f 59f
3:00pm 3ft 14s 11 13 mph 1024.7mb 59f 59f
2:00pm 3ft 6s 11 13 mph 1024.4mb 59f 59f
1:00pm 3.5ft 6s 9 11 mph 1024.2mb 60f 59f
12:00pm 4ft 6s 9 11 mph 1023.8mb 59f 59f
11:00am 3.5ft 7s 7 9 mph 1023.4mb 59f 58f
10:00am 3.5ft 7s 7 9 mph 1023mb 59f 57f
9:00am 4ft 7s 11 16 mph 1022.8mb 59f 59f
8:00am 3.5ft 7s 9
mph
1022.4mb 59f 59f
7:00am 3.5ft 7s 7 9 mph 1022mb 59f 58f
6:00am 3.5ft 7s 7
mph
1021.7mb 59f 58f
5:00am 3ft 7s 4 7 mph 1021.4mb 59f 58f
4:00am 3ft 6s 7
mph
1021.4mb 59f 58f
3:00am 2.5ft 6s 7
mph
1020.9mb 59f 58f
2:00am 3ft 15s 7 9 mph 1020.9mb 59f 58f
1:00am 3ft 7s 9 11 mph 1020.9mb 59f 58f
12:00am 3ft 7s 7 9 mph 1020.5mb 59f 57f
Tue 07/29 11:00pm 3.5ft 7s 9 11 mph 1020.5mb 59f 57f
10:00pm 3.5ft 7s 9
mph
1020.6mb 59f 58f
9:00pm 3.5ft 7s 9
mph
1020.3mb 59f 58f
8:00pm 3.5ft 8s 9 11 mph 1020.1mb 59f 58f
7:00pm 3ft 8s 9 11 mph 1019.8mb 59f 58f
6:00pm 3ft 8s 9 11 mph 1019.5mb 60f 58f
5:00pm 2.5ft 7s 7
mph
1019.1mb 60f 58f
4:00pm 3ft 7s 4 7 mph 1018.7mb 59f 57f
3:00pm 2.5ft 7s 7 9 mph 1018.3mb 59f 58f
2:00pm 3ft 7s 13
mph
1017.8mb 59f 56f
1:00pm 3ft 7s 13
mph
1017.2mb 59f 58f
12:00pm 2.5ft 6s 11 13 mph 1016.8mb 59f 58f
11:00am 2.5ft 16s 9 11 mph 1016.2mb 59f 58f
10:00am 2.5ft 15s 7 9 mph 1015.9mb 59f 58f
9:00am 2.5ft 6s 4 7 mph 1015.4mb 59f 58f
8:00am 2.5ft 6s 2 4 mph 1015.1mb 59f 58f
7:00am 2.5ft 6s 4 7 mph 1014.8mb 58f 57f
6:00am 2.5ft 6s 4 7 mph 1014.5mb 59f 57f
5:00am 2.5ft 6s 4 7 mph 1014.6mb 59f 57f
4:00am 2.5ft 6s 7 9 mph 1014.5mb 59f 57f
3:00am 2.5ft 6s 7
mph
1015mb 59f 57f
2:00am 3ft 6s 7 9 mph 1014.7mb 59f 57f
1:00am 3ft 5s 4 7 mph 1015.5mb 59f 57f
12:00am 3ft 5s 4
mph
1015.4mb 59f 57f
Mon 07/28 11:00pm 3.5ft 5s 2 4 mph 1015.9mb 59f 57f
10:00pm 3ft 5s  -  2 mph 1016mb 59f 57f
9:00pm 3ft 5s 2
mph
1016mb 59f 59f
8:00pm 3.5ft 16s 2 4 mph 1015.8mb 60f 59f
7:00pm 3ft 8s 2 4 mph 1015.9mb 59f 59f
6:00pm 3ft 5s 4 7 mph 1015.8mb 59f 58f
5:00pm 2.5ft 16s 7 9 mph 1015.8mb 59f 58f
4:00pm 3ft 8s 7 9 mph 1015.7mb 59f 57f
3:00pm 2.5ft 5s 4
mph
1015.6mb 59f 57f
2:00pm 2.5ft 5s  -  2 mph 1015.6mb 59f 57f
1:00pm 2.5ft 5s  -  2 mph 1015.9mb 58f 57f
12:00pm 3ft 5s  -  2 mph 1015.9mb 58f 57f
11:00am 3ft 5s 2 4 mph 1015.8mb 58f 56f
10:00am 3.5ft 5s 4 7 mph 1015.9mb 58f 56f
9:00am 3.5ft 7s 2 4 mph 1016.2mb 59f 56f
8:00am 3.5ft 5s 4 9 mph 1016.3mb 58f 57f
7:00am 3.5ft 5s 7 9 mph 1016.7mb 59f 58f
6:00am 3.5ft 8s 11 16 mph 1016.8mb 58f 58f
5:00am 3.5ft 8s 13 16 mph 1016.8mb 58f 58f
4:00am 3.5ft 9s 16 18 mph 1016.7mb 58f 58f
3:00am 3ft 7s 18 20 mph 1016.6mb 59f 59f
2:00am 3ft 5s 13
mph
1017mb 59f 58f
1:00am 3.5ft 8s 13 16 mph 1017.5mb 59f 58f
12:00am 3.5ft 5s 13 16 mph 1017.8mb 59f 58f
Sun 07/27 11:00pm 3.5ft 8s 13 16 mph 1018mb 59f 58f
10:00pm 3.5ft 5s 13 18 mph 1018mb 59f 58f
9:00pm 4.5ft 5s 16 18 mph 1017.8mb 58f 58f
8:00pm 4ft 8s 16 20 mph 1017.9mb 59f 58f
7:00pm 4ft 8s 16 20 mph 1017.9mb 59f 58f
6:00pm 3.5ft 8s 16 18 mph 1018.2mb 59f 58f
5:00pm 3ft 8s 16 18 mph 1018.3mb 59f 59f
4:00pm 3ft 7s 11 13 mph 1018.6mb 59f 58f
3:00pm 3ft 8s 13
mph
1018.5mb 59f 58f
2:00pm 3ft 6s 13 18 mph 1018.4mb 59f 58f
1:00pm 3ft 8s 7 9 mph 1018.3mb 59f 58f
12:00pm 3.5ft 7s 7 9 mph 1018.4mb 59f 58f
11:00am 3.5ft 5s 7 9 mph 1018.3mb 59f 58f
10:00am 4ft 6s 4 7 mph 1018.1mb 58f 58f
9:00am 4ft 6s 4 7 mph 1018.1mb 58f 58f
8:00am 4.5ft 6s 2 4 mph 1017.8mb 58f 58f
7:00am 4.5ft 6s 4
mph
1017.5mb 58f 58f
6:00am 4.5ft 6s 7 11 mph 1017.3mb 58f 58f
5:00am 4.5ft 6s 11 13 mph 1017.1mb 58f 58f
4:00am 4.5ft 6s 11 13 mph 1016.8mb 58f 58f
3:00am 4.5ft 6s 13 16 mph 1016.5mb 58f 58f